< < Back
Terminal Aerodrome Forecast


Current Version              Previous Versions:   1  2  3  4  5  6  7  8  9  

Terminal Aerodrome Forecast

909
FTUS42 KGSP 031124
TAFHKY
TAF
KHKY 031124Z 0312/0412 00000KT P6SM SCT250
     FM031500 22005KT P6SM SCT045
     FM040100 00000KT P6SM SCT250=

Latest METAR

959
SAUS70 KWBC 031900 RRL
MTRHKY
METAR KHKY 031853Z 05003KT 10SM SCT060 33/16 A2993 RMK AO2 SLP111
T03280161


USA.gov is the U.S. government's official web portal to all federal, state and local government web resources and services.